PWSweather.com
Personal Weather Stations
Station Observations
SHAHALMS1
Eftra, Falkenberg, HA

EftraFalkenberg, HA

Lat: 56.85, Lon: 12.65

Elevation: 140

Station Type:

http://hem.passagen.se/risarp101

High Low Average
Temperature 45.3°F7.4°C 37.6°F3.1°C 42.9°F6.1°C
Dew Point 41.1°F5.1°C 31.7°F-0.2°C 38.5°F3.6°C
Winds 9.5 mph 15.3 kmh Calm Calm 5.0 mph E8.0 kmh E
Wind Gusts 21.1 mph34.0 kmh -- 11.0 mph17.7 kmh
Humidity 86% 79% 84%
Pressure 29.36 in994.2 mb 28.97 in981.0 mb -
Precipitation 0.48 in12.2 mm - -
Hour Temp Dew Point Humidity Winds Wind Gusts Pressure Precip Precip Rate Daily Precip Total
12:00 AM 40.6°F4.8°C 34.6°F1.4°C 79% 8.1 mph ESE13.0 kmh ESE 14.7 mph23.7 kmh 29.36 in994.2 mb 0.00 in0.0 mm 0.00 in0.0 mm 0.00 in0.0 mm
12:15 AM 40.6°F4.8°C 34.6°F1.4°C 79% 4.9 mph ESE7.9 kmh ESE 10.4 mph16.7 kmh 29.33 in993.2 mb 0.00 in0.0 mm 0.00 in0.0 mm 0.00 in0.0 mm
12:30 AM 40.8°F4.9°C 34.8°F1.6°C 79% 4.8 mph ESE7.7 kmh ESE 8.9 mph14.3 kmh 29.33 in993.2 mb 0.00 in0.0 mm 0.00 in0.0 mm 0.00 in0.0 mm
12:45 AM 41.0°F5.0°C 35.0°F1.7°C 79% 3.8 mph E6.1 kmh E 8.9 mph14.3 kmh 29.36 in994.2 mb 0.00 in0.0 mm 0.00 in0.0 mm 0.00 in0.0 mm
01:00 AM 41.0°F5.0°C 35.3°F1.8°C 80% 4.2 mph SE6.8 kmh SE 10.0 mph16.1 kmh 29.33 in993.2 mb 0.00 in0.0 mm 0.00 in0.0 mm 0.00 in0.0 mm
01:15 AM 41.2°F5.1°C 35.5°F1.9°C 80% 1.9 mph E3.1 kmh E 5.7 mph9.2 kmh 29.33 in993.2 mb 0.00 in0.0 mm 0.00 in0.0 mm 0.00 in0.0 mm
01:30 AM 41.2°F5.1°C 35.5°F1.9°C 80% 0.4 mph E0.6 kmh E 3.6 mph5.8 kmh 29.33 in993.2 mb 0.00 in0.0 mm 0.00 in0.0 mm 0.00 in0.0 mm
01:45 AM 40.6°F4.8°C 34.6°F1.4°C 79% 4.5 mph SE7.2 kmh SE 8.9 mph14.3 kmh 29.33 in993.2 mb 0.00 in0.0 mm 0.00 in0.0 mm 0.00 in0.0 mm
02:00 AM 40.1°F4.5°C 34.1°F1.2°C 79% 0.8 mph SE1.3 kmh SE 6.1 mph9.8 kmh 29.30 in992.2 mb 0.00 in0.0 mm 0.00 in0.0 mm 0.00 in0.0 mm
02:15 AM 39.7°F4.3°C 33.8°F1.0°C 79% 2.2 mph ESE3.5 kmh ESE 6.8 mph10.9 kmh 29.30 in992.2 mb 0.00 in0.0 mm 0.00 in0.0 mm 0.00 in0.0 mm
02:30 AM 39.2°F4.0°C 33.2°F0.7°C 79% Calm Calm -- 29.30 in992.2 mb 0.00 in0.0 mm 0.00 in0.0 mm 0.00 in0.0 mm
02:45 AM 38.5°F3.6°C 32.5°F0.3°C 79% Calm Calm -- 29.30 in992.2 mb 0.00 in0.0 mm 0.00 in0.0 mm 0.00 in0.0 mm
03:00 AM 38.1°F3.4°C 32.2°F0.1°C 79% 1.5 mph E2.4 kmh E 5.4 mph8.7 kmh 29.27 in991.2 mb 0.00 in0.0 mm 0.00 in0.0 mm 0.00 in0.0 mm
03:15 AM 38.1°F3.4°C 32.2°F0.1°C 79% Calm Calm -- 29.30 in992.2 mb 0.00 in0.0 mm 0.00 in0.0 mm 0.00 in0.0 mm
03:30 AM 38.1°F3.4°C 32.5°F0.3°C 80% Calm Calm -- 29.30 in992.2 mb 0.00 in0.0 mm 0.00 in0.0 mm 0.00 in0.0 mm
03:45 AM 38.3°F3.5°C 32.7°F0.4°C 80% 0.1 mph E0.2 kmh E 1.4 mph2.3 kmh 29.30 in992.2 mb 0.00 in0.0 mm 0.00 in0.0 mm 0.00 in0.0 mm
04:00 AM 38.1°F3.4°C 32.5°F0.3°C 80% 0.1 mph E0.2 kmh E 3.2 mph5.1 kmh 29.27 in991.2 mb 0.00 in0.0 mm 0.00 in0.0 mm 0.00 in0.0 mm
04:15 AM 38.1°F3.4°C 32.5°F0.3°C 80% 0.2 mph SE0.3 kmh SE 3.6 mph5.8 kmh 29.30 in992.2 mb 0.00 in0.0 mm 0.00 in0.0 mm 0.00 in0.0 mm
04:30 AM 37.6°F3.1°C 31.7°F-0.2°C 79% 1.0 mph E1.6 kmh E 5.0 mph8.0 kmh 29.27 in991.2 mb 0.00 in0.0 mm 0.00 in0.0 mm 0.00 in0.0 mm
04:45 AM 37.6°F3.1°C 32.0°F0.0°C 80% 2.2 mph E3.5 kmh E 6.1 mph9.8 kmh 29.27 in991.2 mb 0.00 in0.0 mm 0.00 in0.0 mm 0.00 in0.0 mm
05:00 AM 37.6°F3.1°C 32.0°F0.0°C 80% 1.5 mph ESE2.4 kmh ESE 7.9 mph12.7 kmh 29.27 in991.2 mb 0.00 in0.0 mm 0.00 in0.0 mm 0.00 in0.0 mm
05:15 AM 37.8°F3.2°C 32.5°F0.3°C 81% 3.8 mph E6.1 kmh E 9.7 mph15.6 kmh 29.27 in991.2 mb 0.00 in0.0 mm 0.00 in0.0 mm 0.00 in0.0 mm
05:30 AM 38.1°F3.4°C 32.8°F0.4°C 81% 2.5 mph SE4.0 kmh SE 7.9 mph12.7 kmh 29.27 in991.2 mb 0.00 in0.0 mm 0.00 in0.0 mm 0.00 in0.0 mm
05:46 AM 38.8°F3.8°C 33.8°F1.0°C 82% 6.7 mph E10.8 kmh E 10.0 mph16.1 kmh 29.33 in993.2 mb 0.00 in0.0 mm 0.00 in0.0 mm 0.00 in0.0 mm
05:47 AM 38.8°F3.8°C 33.8°F1.0°C 82% 7.1 mph E11.4 kmh E 10.0 mph16.1 kmh 29.24 in990.2 mb 0.00 in0.0 mm 0.00 in0.0 mm 0.00 in0.0 mm
05:48 AM 38.8°F3.8°C 33.8°F1.0°C 82% 6.6 mph E10.6 kmh E 10.0 mph16.1 kmh 29.24 in990.2 mb 0.00 in0.0 mm 0.00 in0.0 mm 0.00 in0.0 mm
05:49 AM 38.8°F3.8°C 33.8°F1.0°C 82% 6.4 mph E10.3 kmh E 10.0 mph16.1 kmh 29.24 in990.2 mb 0.00 in0.0 mm 0.00 in0.0 mm 0.00 in0.0 mm
05:50 AM 38.8°F3.8°C 33.8°F1.0°C 82% 6.7 mph E10.8 kmh E 10.4 mph16.7 kmh 29.24 in990.2 mb 0.00 in0.0 mm 0.00 in0.0 mm 0.00 in0.0 mm
06:01 AM 38.8°F3.8°C 33.8°F1.0°C 82% 6.1 mph SE9.8 kmh SE 8.9 mph14.3 kmh 29.27 in991.2 mb 0.00 in0.0 mm 0.00 in0.0 mm 0.00 in0.0 mm
06:02 AM 38.8°F3.8°C 33.8°F1.0°C 82% 4.1 mph SE6.6 kmh SE 8.9 mph14.3 kmh 29.27 in991.2 mb 0.00 in0.0 mm 0.00 in0.0 mm 0.00 in0.0 mm
06:03 AM 38.8°F3.8°C 33.8°F1.0°C 82% 3.8 mph SE6.1 kmh SE 8.9 mph14.3 kmh 29.27 in991.2 mb 0.00 in0.0 mm 0.00 in0.0 mm 0.00 in0.0 mm
06:04 AM 38.8°F3.8°C 33.8°F1.0°C 82% 3.1 mph SE5.0 kmh SE 8.9 mph14.3 kmh 29.27 in991.2 mb 0.00 in0.0 mm 0.00 in0.0 mm 0.00 in0.0 mm
06:15 AM 39.0°F3.9°C 34.0°F1.1°C 82% 1.6 mph E2.6 kmh E 5.7 mph9.2 kmh 29.27 in991.2 mb 0.00 in0.0 mm 0.00 in0.0 mm 0.00 in0.0 mm
06:30 AM 38.8°F3.8°C 33.8°F1.0°C 82% 1.4 mph E2.3 kmh E 5.0 mph8.0 kmh 29.24 in990.2 mb 0.00 in0.0 mm 0.00 in0.0 mm 0.00 in0.0 mm
06:45 AM 38.7°F3.7°C 33.3°F0.7°C 81% 5.0 mph E8.0 kmh E 10.0 mph16.1 kmh 29.27 in991.2 mb 0.00 in0.0 mm 0.00 in0.0 mm 0.00 in0.0 mm
07:00 AM 38.5°F3.6°C 33.5°F0.8°C 82% 1.9 mph E3.1 kmh E 6.4 mph10.3 kmh 29.24 in990.2 mb 0.00 in0.0 mm 0.00 in0.0 mm 0.00 in0.0 mm
07:15 AM 38.7°F3.7°C 33.6°F0.9°C 82% 5.6 mph ESE9.0 kmh ESE 10.0 mph16.1 kmh 29.27 in991.2 mb 0.00 in0.0 mm 0.00 in0.0 mm 0.00 in0.0 mm
07:30 AM 39.0°F3.9°C 34.0°F1.1°C 82% 2.1 mph ESE3.4 kmh ESE 8.9 mph14.3 kmh 29.30 in992.2 mb 0.00 in0.0 mm 0.00 in0.0 mm 0.00 in0.0 mm
07:45 AM 39.2°F4.0°C 34.5°F1.4°C 83% 3.0 mph E4.8 kmh E 6.8 mph10.9 kmh 29.27 in991.2 mb 0.00 in0.0 mm 0.00 in0.0 mm 0.00 in0.0 mm
08:00 AM 39.2°F4.0°C 34.2°F1.2°C 82% 1.6 mph ESE2.6 kmh ESE 7.9 mph12.7 kmh 29.27 in991.2 mb 0.00 in0.0 mm 0.00 in0.0 mm 0.00 in0.0 mm
08:15 AM 39.7°F4.3°C 35.0°F1.7°C 83% 4.3 mph E6.9 kmh E 6.8 mph10.9 kmh 29.27 in991.2 mb 0.00 in0.0 mm 0.00 in0.0 mm 0.00 in0.0 mm
08:30 AM 40.1°F4.5°C 35.4°F1.9°C 83% 2.9 mph E4.7 kmh E 6.8 mph10.9 kmh 29.27 in991.2 mb 0.00 in0.0 mm 0.00 in0.0 mm 0.00 in0.0 mm
08:45 AM 40.5°F4.7°C 35.7°F2.1°C 83% 5.3 mph E8.5 kmh E 11.5 mph18.5 kmh 29.27 in991.2 mb 0.00 in0.0 mm 0.00 in0.0 mm 0.00 in0.0 mm
09:00 AM 40.8°F4.9°C 36.4°F2.4°C 84% 6.1 mph SE9.8 kmh SE 10.7 mph17.2 kmh 29.24 in990.2 mb 0.00 in0.0 mm 0.00 in0.0 mm 0.00 in0.0 mm
09:15 AM 41.2°F5.1°C 36.7°F2.6°C 84% 7.1 mph SE11.4 kmh SE 10.0 mph16.1 kmh 29.24 in990.2 mb 0.00 in0.0 mm 0.00 in0.0 mm 0.00 in0.0 mm
09:30 AM 41.5°F5.3°C 37.1°F2.8°C 84% 3.0 mph ESE4.8 kmh ESE 8.9 mph14.3 kmh 29.24 in990.2 mb 0.00 in0.0 mm 0.00 in0.0 mm 0.00 in0.0 mm
09:45 AM 42.3°F5.7°C 38.1°F3.4°C 85% 1.5 mph SE2.4 kmh SE 6.4 mph10.3 kmh 29.24 in990.2 mb 0.05 in1.3 mm 0.20 in5.1 mm 0.05 in1.3 mm
10:00 AM 42.8°F6.0°C 38.6°F3.7°C 85% 0.6 mph S1.0 kmh S 6.8 mph10.9 kmh 29.24 in990.2 mb 0.05 in1.3 mm 0.00 in0.0 mm 0.05 in1.3 mm
10:15 AM 43.2°F6.2°C 39.0°F3.9°C 85% 2.0 mph SE3.2 kmh SE 9.7 mph15.6 kmh 29.24 in990.2 mb 0.05 in1.3 mm 0.00 in0.0 mm 0.05 in1.3 mm
10:30 AM 43.9°F6.6°C 39.7°F4.3°C 85% 3.1 mph SSE5.0 kmh SSE 11.1 mph17.9 kmh 29.21 in989.2 mb 0.05 in1.3 mm 0.00 in0.0 mm 0.05 in1.3 mm
10:45 AM 44.6°F7.0°C 40.7°F4.8°C 86% 0.6 mph E1.0 kmh E 5.0 mph8.0 kmh 29.21 in989.2 mb 0.00 in0.0 mm 0.00 in0.0 mm 0.05 in1.3 mm
11:00 AM 45.0°F7.2°C 40.7°F4.8°C 85% 2.7 mph ESE4.3 kmh ESE 6.8 mph10.9 kmh 29.21 in989.2 mb 0.06 in1.5 mm 0.08 in2.0 mm 0.10 in2.5 mm
11:15 AM 45.0°F7.2°C 40.7°F4.8°C 85% 1.0 mph E1.6 kmh E 6.8 mph10.9 kmh 29.21 in989.2 mb 0.06 in1.5 mm 0.00 in0.0 mm 0.10 in2.5 mm
11:30 AM 45.0°F7.2°C 40.7°F4.8°C 85% 1.7 mph SE2.7 kmh SE 6.8 mph10.9 kmh 29.18 in988.1 mb 0.06 in1.5 mm 0.00 in0.0 mm 0.10 in2.5 mm
11:45 AM 45.0°F7.2°C 40.7°F4.8°C 85% 4.6 mph ESE7.4 kmh ESE 10.0 mph16.1 kmh 29.21 in989.2 mb 0.06 in1.5 mm 0.00 in0.0 mm 0.10 in2.5 mm
12:00 PM 45.1°F7.3°C 40.9°F4.9°C 85% 4.8 mph E7.7 kmh E 11.8 mph19.0 kmh 29.21 in989.2 mb 0.00 in0.0 mm 0.00 in0.0 mm 0.10 in2.5 mm
12:15 PM 45.3°F7.4°C 41.1°F5.1°C 85% 4.6 mph E7.4 kmh E 8.6 mph13.8 kmh 29.18 in988.1 mb 0.00 in0.0 mm 0.00 in0.0 mm 0.10 in2.5 mm
12:30 PM 45.1°F7.3°C 40.9°F4.9°C 85% 4.8 mph E7.7 kmh E 14.0 mph22.5 kmh 29.18 in988.1 mb 0.00 in0.0 mm 0.00 in0.0 mm 0.10 in2.5 mm
12:45 PM 45.1°F7.3°C 40.9°F4.9°C 85% 7.1 mph ESE11.4 kmh ESE 17.9 mph28.8 kmh 29.15 in987.1 mb 0.00 in0.0 mm 0.00 in0.0 mm 0.10 in2.5 mm
01:00 PM 45.1°F7.3°C 40.9°F4.9°C 85% 8.7 mph ESE14.0 kmh ESE 21.1 mph34.0 kmh 29.15 in987.1 mb 0.00 in0.0 mm 0.00 in0.0 mm 0.10 in2.5 mm
01:15 PM 45.3°F7.4°C 41.1°F5.1°C 85% 7.0 mph ESE11.3 kmh ESE 15.0 mph24.1 kmh 29.15 in987.1 mb 0.05 in1.3 mm 0.20 in5.1 mm 0.15 in3.8 mm
01:30 PM 45.0°F7.2°C 40.7°F4.8°C 85% 9.5 mph E15.3 kmh E 20.0 mph32.2 kmh 29.15 in987.1 mb 0.05 in1.3 mm 0.00 in0.0 mm 0.15 in3.8 mm
01:46 PM 44.6°F7.0°C 40.4°F4.7°C 85% 7.0 mph E11.3 kmh E 13.6 mph21.9 kmh 29.12 in986.1 mb 0.05 in1.3 mm 0.00 in0.0 mm 0.15 in3.8 mm
02:00 PM 44.4°F6.9°C 40.2°F4.6°C 85% 8.9 mph E14.3 kmh E 17.2 mph27.7 kmh 29.12 in986.1 mb 0.05 in1.3 mm 0.00 in0.0 mm 0.15 in3.8 mm
02:15 PM 44.4°F6.9°C 40.2°F4.6°C 85% 6.7 mph E10.8 kmh E 11.8 mph19.0 kmh 29.09 in985.1 mb 0.00 in0.0 mm 0.00 in0.0 mm 0.15 in3.8 mm
02:26 PM 44.2°F6.8°C 40.0°F4.4°C 85% 5.1 mph ESE8.2 kmh ESE 7.2 mph11.6 kmh 29.09 in985.1 mb 0.00 in0.0 mm 0.00 in0.0 mm 0.15 in3.8 mm
02:27 PM 44.2°F6.8°C 40.0°F4.4°C 85% 6.0 mph SE9.7 kmh SE 9.7 mph15.6 kmh 29.09 in985.1 mb 0.00 in0.0 mm 0.00 in0.0 mm 0.15 in3.8 mm
02:28 PM 44.2°F6.8°C 40.0°F4.4°C 85% 5.5 mph ESE8.9 kmh ESE 9.7 mph15.6 kmh 29.09 in985.1 mb 0.00 in0.0 mm 0.00 in0.0 mm 0.15 in3.8 mm
02:29 PM 44.2°F6.8°C 40.0°F4.4°C 85% 5.1 mph ESE8.2 kmh ESE 9.7 mph15.6 kmh 29.09 in985.1 mb 0.00 in0.0 mm 0.00 in0.0 mm 0.15 in3.8 mm
02:30 PM 44.2°F6.8°C 40.0°F4.4°C 85% 4.4 mph ESE7.1 kmh ESE 9.7 mph15.6 kmh 29.09 in985.1 mb 0.00 in0.0 mm 0.00 in0.0 mm 0.15 in3.8 mm
02:31 PM 44.2°F6.8°C 40.0°F4.4°C 85% 5.0 mph ESE8.0 kmh ESE 9.7 mph15.6 kmh 29.09 in985.1 mb 0.00 in0.0 mm 0.00 in0.0 mm 0.15 in3.8 mm
02:32 PM 44.2°F6.8°C 40.0°F4.4°C 85% 5.7 mph E9.2 kmh E 12.2 mph19.6 kmh 29.09 in985.1 mb 0.00 in0.0 mm 0.00 in0.0 mm 0.15 in3.8 mm
02:33 PM 44.1°F6.7°C 39.8°F4.3°C 85% 6.4 mph E10.3 kmh E 13.6 mph21.9 kmh 29.09 in985.1 mb 0.00 in0.0 mm 0.00 in0.0 mm 0.15 in3.8 mm
02:34 PM 44.1°F6.7°C 39.8°F4.3°C 85% 6.5 mph E10.5 kmh E 13.6 mph21.9 kmh 29.09 in985.1 mb 0.00 in0.0 mm 0.00 in0.0 mm 0.15 in3.8 mm
02:35 PM 44.1°F6.7°C 39.5°F4.2°C 84% 6.3 mph E10.1 kmh E 13.6 mph21.9 kmh 29.09 in985.1 mb 0.00 in0.0 mm 0.00 in0.0 mm 0.15 in3.8 mm
02:36 PM 44.1°F6.7°C 39.5°F4.2°C 84% 6.2 mph E10.0 kmh E 13.6 mph21.9 kmh 29.09 in985.1 mb 0.00 in0.0 mm 0.00 in0.0 mm 0.15 in3.8 mm
02:37 PM 44.1°F6.7°C 39.5°F4.2°C 84% 6.3 mph E10.1 kmh E 13.6 mph21.9 kmh 29.09 in985.1 mb 0.00 in0.0 mm 0.00 in0.0 mm 0.15 in3.8 mm
02:38 PM 44.1°F6.7°C 39.5°F4.2°C 84% 6.6 mph E10.6 kmh E 13.6 mph21.9 kmh 29.09 in985.1 mb 0.00 in0.0 mm 0.00 in0.0 mm 0.15 in3.8 mm
02:39 PM 44.1°F6.7°C 39.5°F4.2°C 84% 6.9 mph E11.1 kmh E 13.6 mph21.9 kmh 29.09 in985.1 mb 0.00 in0.0 mm 0.00 in0.0 mm 0.15 in3.8 mm
02:40 PM 44.1°F6.7°C 39.5°F4.2°C 84% 7.4 mph E11.9 kmh E 13.6 mph21.9 kmh 29.09 in985.1 mb 0.05 in1.3 mm 3.00 in76.2 mm 0.20 in5.1 mm
02:41 PM 44.1°F6.7°C 39.5°F4.2°C 84% 7.4 mph E11.9 kmh E 13.6 mph21.9 kmh 29.09 in985.1 mb 0.05 in1.3 mm 0.00 in0.0 mm 0.20 in5.1 mm
02:42 PM 44.1°F6.7°C 39.5°F4.2°C 84% 7.2 mph E11.6 kmh E 13.6 mph21.9 kmh 29.09 in985.1 mb 0.05 in1.3 mm 0.00 in0.0 mm 0.20 in5.1 mm
02:43 PM 43.9°F6.6°C 39.4°F4.1°C 84% 6.6 mph E10.6 kmh E 10.4 mph16.7 kmh 29.09 in985.1 mb 0.05 in1.3 mm 0.00 in0.0 mm 0.20 in5.1 mm
02:44 PM 43.9°F6.6°C 39.4°F4.1°C 84% 6.6 mph E10.6 kmh E 10.4 mph16.7 kmh 29.09 in985.1 mb 0.05 in1.3 mm 0.00 in0.0 mm 0.20 in5.1 mm
02:45 PM 43.9°F6.6°C 39.4°F4.1°C 84% 6.7 mph E10.8 kmh E 10.4 mph16.7 kmh 29.09 in985.1 mb 0.05 in1.3 mm 0.00 in0.0 mm 0.20 in5.1 mm
02:46 PM 43.9°F6.6°C 39.4°F4.1°C 84% 7.1 mph E11.4 kmh E 10.4 mph16.7 kmh 29.09 in985.1 mb 0.05 in1.3 mm 0.00 in0.0 mm 0.20 in5.1 mm
02:47 PM 43.9°F6.6°C 39.4°F4.1°C 84% 7.0 mph E11.3 kmh E 10.4 mph16.7 kmh 29.09 in985.1 mb 0.05 in1.3 mm 0.00 in0.0 mm 0.20 in5.1 mm
02:48 PM 43.9°F6.6°C 39.7°F4.3°C 85% 7.0 mph E11.3 kmh E 10.4 mph16.7 kmh 29.09 in985.1 mb 0.05 in1.3 mm 0.00 in0.0 mm 0.20 in5.1 mm
02:49 PM 43.9°F6.6°C 39.7°F4.3°C 85% 7.2 mph E11.6 kmh E 10.4 mph16.7 kmh 29.09 in985.1 mb 0.05 in1.3 mm 0.00 in0.0 mm 0.20 in5.1 mm
02:50 PM 43.9°F6.6°C 39.7°F4.3°C 85% 7.1 mph E11.4 kmh E 10.4 mph16.7 kmh 29.09 in985.1 mb 0.05 in1.3 mm 0.00 in0.0 mm 0.20 in5.1 mm
02:51 PM 43.9°F6.6°C 39.7°F4.3°C 85% 6.8 mph E10.9 kmh E 10.4 mph16.7 kmh 29.09 in985.1 mb 0.05 in1.3 mm 0.00 in0.0 mm 0.20 in5.1 mm
02:52 PM 44.1°F6.7°C 39.8°F4.3°C 85% 6.5 mph E10.5 kmh E 10.4 mph16.7 kmh 29.09 in985.1 mb 0.05 in1.3 mm 0.00 in0.0 mm 0.20 in5.1 mm
02:53 PM 44.1°F6.7°C 39.8°F4.3°C 85% 6.4 mph E10.3 kmh E 10.4 mph16.7 kmh 29.09 in985.1 mb 0.05 in1.3 mm 0.00 in0.0 mm 0.20 in5.1 mm
02:54 PM 44.1°F6.7°C 39.8°F4.3°C 85% 6.1 mph E9.8 kmh E 10.0 mph16.1 kmh 29.09 in985.1 mb 0.05 in1.3 mm 0.00 in0.0 mm 0.20 in5.1 mm
02:55 PM 44.1°F6.7°C 39.8°F4.3°C 85% 6.3 mph E10.1 kmh E 10.0 mph16.1 kmh 29.09 in985.1 mb 0.05 in1.3 mm 0.00 in0.0 mm 0.20 in5.1 mm
02:56 PM 44.1°F6.7°C 39.8°F4.3°C 85% 6.1 mph E9.8 kmh E 10.0 mph16.1 kmh 29.09 in985.1 mb 0.05 in1.3 mm 0.00 in0.0 mm 0.20 in5.1 mm
02:57 PM 44.1°F6.7°C 39.8°F4.3°C 85% 6.1 mph E9.8 kmh E 10.0 mph16.1 kmh 29.09 in985.1 mb 0.05 in1.3 mm 0.00 in0.0 mm 0.20 in5.1 mm
02:58 PM 44.1°F6.7°C 39.8°F4.3°C 85% 5.9 mph E9.5 kmh E 10.0 mph16.1 kmh 29.09 in985.1 mb 0.05 in1.3 mm 0.00 in0.0 mm 0.20 in5.1 mm
02:59 PM 44.2°F6.8°C 40.0°F4.4°C 85% 5.7 mph ESE9.2 kmh ESE 7.9 mph12.7 kmh 29.09 in985.1 mb 0.05 in1.3 mm 0.00 in0.0 mm 0.20 in5.1 mm
03:00 PM 44.2°F6.8°C 40.0°F4.4°C 85% 5.6 mph ESE9.0 kmh ESE 7.9 mph12.7 kmh 29.09 in985.1 mb 0.05 in1.3 mm 0.00 in0.0 mm 0.20 in5.1 mm
03:01 PM 44.2°F6.8°C 40.0°F4.4°C 85% 5.6 mph E9.0 kmh E 7.9 mph12.7 kmh 29.09 in985.1 mb 0.05 in1.3 mm 0.00 in0.0 mm 0.20 in5.1 mm
03:02 PM 44.2°F6.8°C 40.0°F4.4°C 85% 6.0 mph E9.7 kmh E 11.8 mph19.0 kmh 29.09 in985.1 mb 0.05 in1.3 mm 0.00 in0.0 mm 0.20 in5.1 mm
03:03 PM 44.2°F6.8°C 40.0°F4.4°C 85% 6.1 mph ESE9.8 kmh ESE 11.8 mph19.0 kmh 29.09 in985.1 mb 0.05 in1.3 mm 0.00 in0.0 mm 0.20 in5.1 mm
03:04 PM 44.2°F6.8°C 40.0°F4.4°C 85% 5.9 mph E9.5 kmh E 11.8 mph19.0 kmh 29.09 in985.1 mb 0.05 in1.3 mm 0.00 in0.0 mm 0.20 in5.1 mm
03:05 PM 44.2°F6.8°C 40.0°F4.4°C 85% 5.2 mph ESE8.4 kmh ESE 11.8 mph19.0 kmh 29.09 in985.1 mb 0.05 in1.3 mm 0.00 in0.0 mm 0.20 in5.1 mm
03:06 PM 44.2°F6.8°C 40.0°F4.4°C 85% 4.9 mph ESE7.9 kmh ESE 11.8 mph19.0 kmh 29.09 in985.1 mb 0.05 in1.3 mm 0.00 in0.0 mm 0.20 in5.1 mm
03:07 PM 44.2°F6.8°C 40.0°F4.4°C 85% 4.2 mph ESE6.8 kmh ESE 11.8 mph19.0 kmh 29.09 in985.1 mb 0.05 in1.3 mm 0.00 in0.0 mm 0.20 in5.1 mm
03:08 PM 44.2°F6.8°C 40.0°F4.4°C 85% 4.4 mph E7.1 kmh E 11.8 mph19.0 kmh 29.09 in985.1 mb 0.05 in1.3 mm 0.00 in0.0 mm 0.20 in5.1 mm
03:09 PM 44.2°F6.8°C 40.0°F4.4°C 85% 4.2 mph E6.8 kmh E 11.8 mph19.0 kmh 29.09 in985.1 mb 0.05 in1.3 mm 0.00 in0.0 mm 0.20 in5.1 mm
03:10 PM 44.2°F6.8°C 40.0°F4.4°C 85% 4.1 mph E6.6 kmh E 11.8 mph19.0 kmh 29.09 in985.1 mb 0.05 in1.3 mm 0.00 in0.0 mm 0.20 in5.1 mm
03:11 PM 44.2°F6.8°C 40.0°F4.4°C 85% 4.2 mph E6.8 kmh E 11.8 mph19.0 kmh 29.09 in985.1 mb 0.05 in1.3 mm 0.00 in0.0 mm 0.20 in5.1 mm
03:12 PM 44.2°F6.8°C 40.0°F4.4°C 85% 3.7 mph E6.0 kmh E 9.7 mph15.6 kmh 29.09 in985.1 mb 0.05 in1.3 mm 0.00 in0.0 mm 0.20 in5.1 mm
03:13 PM 44.2°F6.8°C 40.0°F4.4°C 85% 3.5 mph E5.6 kmh E 9.7 mph15.6 kmh 29.09 in985.1 mb 0.05 in1.3 mm 0.00 in0.0 mm 0.20 in5.1 mm
03:14 PM 44.2°F6.8°C 40.0°F4.4°C 85% 3.7 mph E6.0 kmh E 9.7 mph15.6 kmh 29.09 in985.1 mb 0.05 in1.3 mm 0.00 in0.0 mm 0.20 in5.1 mm
03:15 PM 44.2°F6.8°C 40.0°F4.4°C 85% 4.4 mph E7.1 kmh E 9.7 mph15.6 kmh 29.09 in985.1 mb 0.05 in1.3 mm 0.00 in0.0 mm 0.20 in5.1 mm
03:16 PM 44.2°F6.8°C 40.0°F4.4°C 85% 5.0 mph E8.0 kmh E 9.7 mph15.6 kmh 29.09 in985.1 mb 0.05 in1.3 mm 0.00 in0.0 mm 0.20 in5.1 mm
03:17 PM 44.2°F6.8°C 40.0°F4.4°C 85% 5.8 mph E9.3 kmh E 10.4 mph16.7 kmh 29.09 in985.1 mb 0.05 in1.3 mm 0.00 in0.0 mm 0.20 in5.1 mm
03:18 PM 44.2°F6.8°C 40.0°F4.4°C 85% 5.7 mph E9.2 kmh E 10.4 mph16.7 kmh 29.09 in985.1 mb 0.05 in1.3 mm 0.00 in0.0 mm 0.20 in5.1 mm
03:19 PM 44.2°F6.8°C 40.0°F4.4°C 85% 5.7 mph ENE9.2 kmh ENE 10.4 mph16.7 kmh 29.09 in985.1 mb 0.05 in1.3 mm 0.00 in0.0 mm 0.20 in5.1 mm
03:20 PM 44.2°F6.8°C 40.0°F4.4°C 85% 6.0 mph ENE9.7 kmh ENE 10.4 mph16.7 kmh 29.09 in985.1 mb 0.05 in1.3 mm 0.00 in0.0 mm 0.20 in5.1 mm
03:21 PM 44.2°F6.8°C 40.0°F4.4°C 85% 6.4 mph E10.3 kmh E 11.5 mph18.5 kmh 29.09 in985.1 mb 0.05 in1.3 mm 0.00 in0.0 mm 0.20 in5.1 mm
03:22 PM 44.2°F6.8°C 40.0°F4.4°C 85% 6.2 mph E10.0 kmh E 11.5 mph18.5 kmh 29.09 in985.1 mb 0.05 in1.3 mm 0.00 in0.0 mm 0.20 in5.1 mm
03:23 PM 44.2°F6.8°C 40.0°F4.4°C 85% 6.3 mph ENE10.1 kmh ENE 11.5 mph18.5 kmh 29.09 in985.1 mb 0.05 in1.3 mm 0.00 in0.0 mm 0.20 in5.1 mm
03:24 PM 44.2°F6.8°C 40.0°F4.4°C 85% 6.2 mph ENE10.0 kmh ENE 11.5 mph18.5 kmh 29.09 in985.1 mb 0.05 in1.3 mm 0.00 in0.0 mm 0.20 in5.1 mm
03:25 PM 44.2°F6.8°C 40.0°F4.4°C 85% 5.9 mph E9.5 kmh E 11.5 mph18.5 kmh 29.09 in985.1 mb 0.05 in1.3 mm 0.00 in0.0 mm 0.20 in5.1 mm
03:26 PM 44.2°F6.8°C 40.0°F4.4°C 85% 5.5 mph E8.9 kmh E 11.5 mph18.5 kmh 29.09 in985.1 mb 0.05 in1.3 mm 0.00 in0.0 mm 0.20 in5.1 mm
03:27 PM 44.2°F6.8°C 40.0°F4.4°C 85% 4.8 mph E7.7 kmh E 11.5 mph18.5 kmh 29.09 in985.1 mb 0.05 in1.3 mm 0.00 in0.0 mm 0.20 in5.1 mm
03:28 PM 44.2°F6.8°C 40.0°F4.4°C 85% 4.6 mph E7.4 kmh E 11.5 mph18.5 kmh 29.09 in985.1 mb 0.05 in1.3 mm 0.00 in0.0 mm 0.20 in5.1 mm
03:29 PM 44.2°F6.8°C 40.0°F4.4°C 85% 4.3 mph E6.9 kmh E 11.5 mph18.5 kmh 29.09 in985.1 mb 0.05 in1.3 mm 0.00 in0.0 mm 0.20 in5.1 mm
03:30 PM 44.1°F6.7°C 39.8°F4.3°C 85% 3.8 mph E6.1 kmh E 11.5 mph18.5 kmh 29.09 in985.1 mb 0.05 in1.3 mm 0.00 in0.0 mm 0.20 in5.1 mm
03:31 PM 44.1°F6.7°C 39.8°F4.3°C 85% 3.3 mph E5.3 kmh E 6.1 mph9.8 kmh 29.09 in985.1 mb 0.05 in1.3 mm 0.00 in0.0 mm 0.20 in5.1 mm
03:32 PM 44.1°F6.7°C 39.8°F4.3°C 85% 2.8 mph E4.5 kmh E 6.1 mph9.8 kmh 29.09 in985.1 mb 0.05 in1.3 mm 0.00 in0.0 mm 0.20 in5.1 mm
03:33 PM 44.1°F6.7°C 39.8°F4.3°C 85% 3.0 mph E4.8 kmh E 6.1 mph9.8 kmh 29.09 in985.1 mb 0.05 in1.3 mm 0.00 in0.0 mm 0.20 in5.1 mm
03:34 PM 44.1°F6.7°C 39.8°F4.3°C 85% 3.0 mph E4.8 kmh E 6.1 mph9.8 kmh 29.09 in985.1 mb 0.05 in1.3 mm 0.00 in0.0 mm 0.20 in5.1 mm
03:35 PM 44.1°F6.7°C 39.8°F4.3°C 85% 3.4 mph E5.5 kmh E 8.9 mph14.3 kmh 29.09 in985.1 mb 0.05 in1.3 mm 0.00 in0.0 mm 0.20 in5.1 mm
03:36 PM 44.1°F6.7°C 39.8°F4.3°C 85% 3.5 mph E5.6 kmh E 8.9 mph14.3 kmh 29.09 in985.1 mb 0.05 in1.3 mm 0.00 in0.0 mm 0.20 in5.1 mm
03:37 PM 44.1°F6.7°C 39.8°F4.3°C 85% 4.2 mph E6.8 kmh E 10.7 mph17.2 kmh 29.09 in985.1 mb 0.05 in1.3 mm 0.00 in0.0 mm 0.20 in5.1 mm
03:38 PM 44.1°F6.7°C 39.8°F4.3°C 85% 4.3 mph ENE6.9 kmh ENE 10.7 mph17.2 kmh 29.09 in985.1 mb 0.05 in1.3 mm 0.00 in0.0 mm 0.20 in5.1 mm
03:39 PM 44.1°F6.7°C 39.8°F4.3°C 85% 4.6 mph E7.4 kmh E 10.7 mph17.2 kmh 29.09 in985.1 mb 0.05 in1.3 mm 0.00 in0.0 mm 0.20 in5.1 mm
03:40 PM 44.1°F6.7°C 39.8°F4.3°C 85% 5.1 mph ENE8.2 kmh ENE 10.7 mph17.2 kmh 29.09 in985.1 mb 0.00 in0.0 mm 0.00 in0.0 mm 0.20 in5.1 mm
03:41 PM 44.1°F6.7°C 39.8°F4.3°C 85% 5.6 mph ENE9.0 kmh ENE 10.7 mph17.2 kmh 29.09 in985.1 mb 0.00 in0.0 mm 0.00 in0.0 mm 0.20 in5.1 mm
03:42 PM 43.9°F6.6°C 39.7°F4.3°C 85% 5.8 mph ENE9.3 kmh ENE 10.7 mph17.2 kmh 29.09 in985.1 mb 0.00 in0.0 mm 0.00 in0.0 mm 0.20 in5.1 mm
03:43 PM 43.9°F6.6°C 39.7°F4.3°C 85% 5.5 mph ENE8.9 kmh ENE 10.7 mph17.2 kmh 29.09 in985.1 mb 0.00 in0.0 mm 0.00 in0.0 mm 0.20 in5.1 mm
03:44 PM 43.9°F6.6°C 39.7°F4.3°C 85% 5.5 mph ENE8.9 kmh ENE 10.7 mph17.2 kmh 29.09 in985.1 mb 0.00 in0.0 mm 0.00 in0.0 mm 0.20 in5.1 mm
03:45 PM 43.9°F6.6°C 39.7°F4.3°C 85% 5.5 mph ENE8.9 kmh ENE 10.7 mph17.2 kmh 29.09 in985.1 mb 0.00 in0.0 mm 0.00 in0.0 mm 0.20 in5.1 mm
03:46 PM 43.9°F6.6°C 39.7°F4.3°C 85% 5.7 mph ENE9.2 kmh ENE 10.7 mph17.2 kmh 29.09 in985.1 mb 0.00 in0.0 mm 0.00 in0.0 mm 0.20 in5.1 mm
03:47 PM 43.9°F6.6°C 39.7°F4.3°C 85% 5.3 mph ENE8.5 kmh ENE 10.0 mph16.1 kmh 29.09 in985.1 mb 0.00 in0.0 mm 0.00 in0.0 mm 0.20 in5.1 mm
03:48 PM 43.9°F6.6°C 39.7°F4.3°C 85% 5.2 mph ENE8.4 kmh ENE 10.0 mph16.1 kmh 29.09 in985.1 mb 0.00 in0.0 mm 0.00 in0.0 mm 0.20 in5.1 mm
03:49 PM 43.9°F6.6°C 39.7°F4.3°C 85% 5.0 mph NE8.0 kmh NE 10.0 mph16.1 kmh 29.09 in985.1 mb 0.00 in0.0 mm 0.00 in0.0 mm 0.20 in5.1 mm
03:50 PM 43.9°F6.6°C 39.7°F4.3°C 85% 4.8 mph ENE7.7 kmh ENE 10.0 mph16.1 kmh 29.09 in985.1 mb 0.00 in0.0 mm 0.00 in0.0 mm 0.20 in5.1 mm
03:51 PM 43.9°F6.6°C 39.7°F4.3°C 85% 5.1 mph ENE8.2 kmh ENE 10.0 mph16.1 kmh 29.09 in985.1 mb 0.00 in0.0 mm 0.00 in0.0 mm 0.20 in5.1 mm
03:52 PM 43.9°F6.6°C 39.7°F4.3°C 85% 5.1 mph E8.2 kmh E 10.0 mph16.1 kmh 29.09 in985.1 mb 0.00 in0.0 mm 0.00 in0.0 mm 0.20 in5.1 mm
03:53 PM 43.9°F6.6°C 39.7°F4.3°C 85% 4.8 mph E7.7 kmh E 10.0 mph16.1 kmh 29.09 in985.1 mb 0.00 in0.0 mm 0.00 in0.0 mm 0.20 in5.1 mm
03:54 PM 43.9°F6.6°C 39.7°F4.3°C 85% 4.5 mph E7.2 kmh E 10.0 mph16.1 kmh 29.09 in985.1 mb 0.00 in0.0 mm 0.00 in0.0 mm 0.20 in5.1 mm
03:55 PM 43.9°F6.6°C 39.7°F4.3°C 85% 4.6 mph E7.4 kmh E 10.4 mph16.7 kmh 29.09 in985.1 mb 0.00 in0.0 mm 0.00 in0.0 mm 0.20 in5.1 mm
03:56 PM 44.1°F6.7°C 39.8°F4.3°C 85% 4.2 mph E6.8 kmh E 10.4 mph16.7 kmh 29.09 in985.1 mb 0.00 in0.0 mm 0.00 in0.0 mm 0.20 in5.1 mm
03:57 PM 44.1°F6.7°C 39.8°F4.3°C 85% 4.2 mph E6.8 kmh E 10.4 mph16.7 kmh 29.09 in985.1 mb 0.00 in0.0 mm 0.00 in0.0 mm 0.20 in5.1 mm
03:58 PM 44.1°F6.7°C 39.8°F4.3°C 85% 4.6 mph E7.4 kmh E 10.4 mph16.7 kmh 29.09 in985.1 mb 0.00 in0.0 mm 0.00 in0.0 mm 0.20 in5.1 mm
03:59 PM 44.1°F6.7°C 39.8°F4.3°C 85% 4.4 mph E7.1 kmh E 10.4 mph16.7 kmh 29.09 in985.1 mb 0.00 in0.0 mm 0.00 in0.0 mm 0.20 in5.1 mm
04:00 PM 44.1°F6.7°C 39.8°F4.3°C 85% 4.7 mph E7.6 kmh E 10.4 mph16.7 kmh 29.09 in985.1 mb 0.00 in0.0 mm 0.00 in0.0 mm 0.20 in5.1 mm
04:01 PM 44.1°F6.7°C 39.8°F4.3°C 85% 4.4 mph E7.1 kmh E 10.4 mph16.7 kmh 29.09 in985.1 mb 0.00 in0.0 mm 0.00 in0.0 mm 0.20 in5.1 mm
04:02 PM 44.1°F6.7°C 39.8°F4.3°C 85% 4.4 mph E7.1 kmh E 10.4 mph16.7 kmh 29.09 in985.1 mb 0.00 in0.0 mm 0.00 in0.0 mm 0.20 in5.1 mm
04:03 PM 44.1°F6.7°C 39.8°F4.3°C 85% 4.9 mph E7.9 kmh E 10.4 mph16.7 kmh 29.09 in985.1 mb 0.00 in0.0 mm 0.00 in0.0 mm 0.20 in5.1 mm
04:04 PM 44.1°F6.7°C 39.8°F4.3°C 85% 4.8 mph E7.7 kmh E 10.4 mph16.7 kmh 29.09 in985.1 mb 0.00 in0.0 mm 0.00 in0.0 mm 0.20 in5.1 mm
04:05 PM 44.1°F6.7°C 39.8°F4.3°C 85% 5.2 mph E8.4 kmh E 9.7 mph15.6 kmh 29.09 in985.1 mb 0.00 in0.0 mm 0.00 in0.0 mm 0.20 in5.1 mm
04:06 PM 44.1°F6.7°C 39.8°F4.3°C 85% 5.5 mph E8.9 kmh E 9.7 mph15.6 kmh 29.09 in985.1 mb 0.00 in0.0 mm 0.00 in0.0 mm 0.20 in5.1 mm
04:07 PM 43.9°F6.6°C 39.7°F4.3°C 85% 5.8 mph E9.3 kmh E 11.5 mph18.5 kmh 29.09 in985.1 mb 0.00 in0.0 mm 0.00 in0.0 mm 0.20 in5.1 mm
04:08 PM 43.9°F6.6°C 39.7°F4.3°C 85% 6.0 mph E9.7 kmh E 11.5 mph18.5 kmh 29.09 in985.1 mb 0.00 in0.0 mm 0.00 in0.0 mm 0.20 in5.1 mm
04:09 PM 43.9°F6.6°C 39.7°F4.3°C 85% 6.0 mph E9.7 kmh E 11.5 mph18.5 kmh 29.09 in985.1 mb 0.00 in0.0 mm 0.00 in0.0 mm 0.20 in5.1 mm
04:10 PM 43.9°F6.6°C 39.7°F4.3°C 85% 6.0 mph E9.7 kmh E 11.5 mph18.5 kmh 29.09 in985.1 mb 0.00 in0.0 mm 0.00 in0.0 mm 0.20 in5.1 mm
04:11 PM 43.9°F6.6°C 39.7°F4.3°C 85% 6.3 mph E10.1 kmh E 11.5 mph18.5 kmh 29.06 in984.1 mb 0.00 in0.0 mm 0.00 in0.0 mm 0.20 in5.1 mm
04:12 PM 43.9°F6.6°C 39.7°F4.3°C 85% 5.9 mph E9.5 kmh E 11.5 mph18.5 kmh 29.06 in984.1 mb 0.00 in0.0 mm 0.00 in0.0 mm 0.20 in5.1 mm
04:13 PM 43.9°F6.6°C 39.7°F4.3°C 85% 6.2 mph E10.0 kmh E 11.5 mph18.5 kmh 29.06 in984.1 mb 0.00 in0.0 mm 0.00 in0.0 mm 0.20 in5.1 mm
04:14 PM 43.9°F6.6°C 39.7°F4.3°C 85% 6.3 mph E10.1 kmh E 11.5 mph18.5 kmh 29.06 in984.1 mb 0.00 in0.0 mm 0.00 in0.0 mm 0.20 in5.1 mm
04:15 PM 43.9°F6.6°C 39.7°F4.3°C 85% 6.3 mph E10.1 kmh E 11.5 mph18.5 kmh 29.06 in984.1 mb 0.00 in0.0 mm 0.00 in0.0 mm 0.20 in5.1 mm
04:16 PM 43.9°F6.6°C 39.7°F4.3°C 85% 6.4 mph E10.3 kmh E 11.5 mph18.5 kmh 29.06 in984.1 mb 0.00 in0.0 mm 0.00 in0.0 mm 0.20 in5.1 mm
04:17 PM 43.9°F6.6°C 39.7°F4.3°C 85% 6.1 mph E9.8 kmh E 10.0 mph16.1 kmh 29.06 in984.1 mb 0.00 in0.0 mm 0.00 in0.0 mm 0.20 in5.1 mm
04:18 PM 43.9°F6.6°C 39.7°F4.3°C 85% 5.9 mph E9.5 kmh E 10.0 mph16.1 kmh 29.06 in984.1 mb 0.00 in0.0 mm 0.00 in0.0 mm 0.20 in5.1 mm
04:19 PM 43.9°F6.6°C 39.7°F4.3°C 85% 6.3 mph E10.1 kmh E 10.0 mph16.1 kmh 29.06 in984.1 mb 0.00 in0.0 mm 0.00 in0.0 mm 0.20 in5.1 mm
04:20 PM 43.9°F6.6°C 39.7°F4.3°C 85% 6.6 mph E10.6 kmh E 12.9 mph20.8 kmh 29.06 in984.1 mb 0.00 in0.0 mm 0.00 in0.0 mm 0.20 in5.1 mm
04:21 PM 43.9°F6.6°C 39.7°F4.3°C 85% 6.8 mph E10.9 kmh E 12.9 mph20.8 kmh 29.06 in984.1 mb 0.00 in0.0 mm 0.00 in0.0 mm 0.20 in5.1 mm
04:22 PM 43.9°F6.6°C 39.7°F4.3°C 85% 7.5 mph E12.1 kmh E 12.9 mph20.8 kmh 29.06 in984.1 mb 0.00 in0.0 mm 0.00 in0.0 mm 0.20 in5.1 mm
04:23 PM 43.9°F6.6°C 39.7°F4.3°C 85% 7.4 mph E11.9 kmh E 12.9 mph20.8 kmh 29.06 in984.1 mb 0.00 in0.0 mm 0.00 in0.0 mm 0.20 in5.1 mm
04:24 PM 43.9°F6.6°C 39.7°F4.3°C 85% 7.9 mph E12.7 kmh E 12.9 mph20.8 kmh 29.06 in984.1 mb 0.00 in0.0 mm 0.00 in0.0 mm 0.20 in5.1 mm
04:25 PM 43.9°F6.6°C 39.7°F4.3°C 85% 7.9 mph E12.7 kmh E 12.9 mph20.8 kmh 29.06 in984.1 mb 0.00 in0.0 mm 0.00 in0.0 mm 0.20 in5.1 mm
04:26 PM 43.9°F6.6°C 39.7°F4.3°C 85% 7.9 mph E12.7 kmh E 12.9 mph20.8 kmh 29.06 in984.1 mb 0.00 in0.0 mm 0.00 in0.0 mm 0.20 in5.1 mm
04:27 PM 43.9°F6.6°C 39.7°F4.3°C 85% 8.1 mph E13.0 kmh E 12.9 mph20.8 kmh 29.06 in984.1 mb 0.00 in0.0 mm 0.00 in0.0 mm 0.20 in5.1 mm
04:28 PM 43.7°F6.5°C 39.5°F4.2°C 85% 8.3 mph E13.4 kmh E 12.9 mph20.8 kmh 29.06 in984.1 mb 0.00 in0.0 mm 0.00 in0.0 mm 0.20 in5.1 mm
04:29 PM 43.7°F6.5°C 39.5°F4.2°C 85% 8.0 mph E12.9 kmh E 12.9 mph20.8 kmh 29.06 in984.1 mb 0.00 in0.0 mm 0.00 in0.0 mm 0.20 in5.1 mm
04:30 PM 43.7°F6.5°C 39.5°F4.2°C 85% 7.7 mph E12.4 kmh E 12.5 mph20.1 kmh 29.06 in984.1 mb 0.00 in0.0 mm 0.00 in0.0 mm 0.20 in5.1 mm
04:31 PM 43.7°F6.5°C 39.5°F4.2°C 85% 7.5 mph E12.1 kmh E 12.5 mph20.1 kmh 29.06 in984.1 mb 0.00 in0.0 mm 0.00 in0.0 mm 0.20 in5.1 mm
04:32 PM 43.7°F6.5°C 39.5°F4.2°C 85% 7.6 mph E12.2 kmh E 12.5 mph20.1 kmh 29.06 in984.1 mb 0.00 in0.0 mm 0.00 in0.0 mm 0.20 in5.1 mm
04:33 PM 43.7°F6.5°C 39.5°F4.2°C 85% 7.5 mph E12.1 kmh E 12.5 mph20.1 kmh 29.06 in984.1 mb 0.00 in0.0 mm 0.00 in0.0 mm 0.20 in5.1 mm
04:34 PM 43.7°F6.5°C 39.5°F4.2°C 85% 7.5 mph E12.1 kmh E 10.7 mph17.2 kmh 29.06 in984.1 mb 0.00 in0.0 mm 0.00 in0.0 mm 0.20 in5.1 mm
04:35 PM 43.7°F6.5°C 39.5°F4.2°C 85% 7.4 mph E11.9 kmh E 10.7 mph17.2 kmh 29.06 in984.1 mb 0.00 in0.0 mm 0.00 in0.0 mm 0.20 in5.1 mm
04:36 PM 43.7°F6.5°C 39.5°F4.2°C 85% 7.4 mph E11.9 kmh E 10.7 mph17.2 kmh 29.06 in984.1 mb 0.00 in0.0 mm 0.00 in0.0 mm 0.20 in5.1 mm
04:37 PM 43.7°F6.5°C 39.5°F4.2°C 85% 7.6 mph E12.2 kmh E 12.9 mph20.8 kmh 29.06 in984.1 mb 0.00 in0.0 mm 0.00 in0.0 mm 0.20 in5.1 mm
04:38 PM 43.7°F6.5°C 39.5°F4.2°C 85% 7.4 mph E11.9 kmh E 12.9 mph20.8 kmh 29.06 in984.1 mb 0.00 in0.0 mm 0.00 in0.0 mm 0.20 in5.1 mm
04:39 PM 43.7°F6.5°C 39.5°F4.2°C 85% 7.3 mph E11.7 kmh E 12.9 mph20.8 kmh 29.06 in984.1 mb 0.00 in0.0 mm 0.00 in0.0 mm 0.20 in5.1 mm
04:40 PM 43.7°F6.5°C 39.5°F4.2°C 85% 7.5 mph E12.1 kmh E 12.9 mph20.8 kmh 29.06 in984.1 mb 0.00 in0.0 mm 0.00 in0.0 mm 0.20 in5.1 mm
04:41 PM 43.7°F6.5°C 39.5°F4.2°C 85% 7.4 mph E11.9 kmh E 12.9 mph20.8 kmh 29.06 in984.1 mb 0.00 in0.0 mm 0.00 in0.0 mm 0.20 in5.1 mm
04:42 PM 43.7°F6.5°C 39.5°F4.2°C 85% 7.4 mph E11.9 kmh E 12.9 mph20.8 kmh 29.06 in984.1 mb 0.00 in0.0 mm 0.00 in0.0 mm 0.20 in5.1 mm
04:43 PM 43.7°F6.5°C 39.5°F4.2°C 85% 7.5 mph E12.1 kmh E 12.9 mph20.8 kmh 29.06 in984.1 mb 0.00 in0.0 mm 0.00 in0.0 mm 0.20 in5.1 mm
04:44 PM 43.7°F6.5°C 39.5°F4.2°C 85% 7.5 mph E12.1 kmh E 12.9 mph20.8 kmh 29.06 in984.1 mb 0.00 in0.0 mm 0.00 in0.0 mm 0.20 in5.1 mm
04:45 PM 43.7°F6.5°C 39.5°F4.2°C 85% 7.3 mph E11.7 kmh E 12.9 mph20.8 kmh 29.06 in984.1 mb 0.00 in0.0 mm 0.00 in0.0 mm 0.20 in5.1 mm
04:46 PM 43.7°F6.5°C 39.5°F4.2°C 85% 7.9 mph E12.7 kmh E 15.7 mph25.3 kmh 29.06 in984.1 mb 0.00 in0.0 mm 0.00 in0.0 mm 0.20 in5.1 mm
04:47 PM 43.7°F6.5°C 39.5°F4.2°C 85% 7.6 mph E12.2 kmh E 15.7 mph25.3 kmh 29.06 in984.1 mb 0.00 in0.0 mm 0.00 in0.0 mm 0.20 in5.1 mm
04:48 PM 43.7°F6.5°C 39.5°F4.2°C 85% 7.6 mph E12.2 kmh E 15.7 mph25.3 kmh 29.06 in984.1 mb 0.00 in0.0 mm 0.00 in0.0 mm 0.20 in5.1 mm
04:49 PM 43.7°F6.5°C 39.5°F4.2°C 85% 7.6 mph E12.2 kmh E 15.7 mph25.3 kmh 29.06 in984.1 mb 0.00 in0.0 mm 0.00 in0.0 mm 0.20 in5.1 mm
04:50 PM 43.5°F6.4°C 39.3°F4.1°C 85% 7.9 mph E12.7 kmh E 15.7 mph25.3 kmh 29.06 in984.1 mb 0.00 in0.0 mm 0.00 in0.0 mm 0.20 in5.1 mm
04:51 PM 43.5°F6.4°C 39.3°F4.1°C 85% 8.1 mph E13.0 kmh E 15.7 mph25.3 kmh 29.06 in984.1 mb 0.00 in0.0 mm 0.00 in0.0 mm 0.20 in5.1 mm
04:52 PM 43.5°F6.4°C 39.3°F4.1°C 85% 7.7 mph E12.4 kmh E 15.7 mph25.3 kmh 29.06 in984.1 mb 0.00 in0.0 mm 0.00 in0.0 mm 0.20 in5.1 mm
04:53 PM 43.5°F6.4°C 39.3°F4.1°C 85% 8.0 mph E12.9 kmh E 15.7 mph25.3 kmh 29.06 in984.1 mb 0.00 in0.0 mm 0.00 in0.0 mm 0.20 in5.1 mm
04:54 PM 43.5°F6.4°C 39.3°F4.1°C 85% 7.9 mph E12.7 kmh E 15.7 mph25.3 kmh 29.06 in984.1 mb 0.00 in0.0 mm 0.00 in0.0 mm 0.20 in5.1 mm
04:55 PM 43.5°F6.4°C 39.3°F4.1°C 85% 7.9 mph E12.7 kmh E 15.7 mph25.3 kmh 29.06 in984.1 mb 0.00 in0.0 mm 0.00 in0.0 mm 0.20 in5.1 mm
04:56 PM 43.5°F6.4°C 39.3°F4.1°C 85% 7.2 mph E11.6 kmh E 13.6 mph21.9 kmh 29.03 in983.1 mb 0.00 in0.0 mm 0.00 in0.0 mm 0.20 in5.1 mm
04:57 PM 43.5°F6.4°C 39.3°F4.1°C 85% 7.0 mph E11.3 kmh E 13.6 mph21.9 kmh 29.03 in983.1 mb 0.00 in0.0 mm 0.00 in0.0 mm 0.20 in5.1 mm
04:58 PM 43.5°F6.4°C 39.3°F4.1°C 85% 6.8 mph E10.9 kmh E 13.6 mph21.9 kmh 29.03 in983.1 mb 0.00 in0.0 mm 0.00 in0.0 mm 0.20 in5.1 mm
04:59 PM 43.5°F6.4°C 39.3°F4.1°C 85% 6.8 mph E10.9 kmh E 13.6 mph21.9 kmh 29.03 in983.1 mb 0.00 in0.0 mm 0.00 in0.0 mm 0.20 in5.1 mm
05:00 PM 43.5°F6.4°C 39.3°F4.1°C 85% 6.7 mph E10.8 kmh E 13.6 mph21.9 kmh 29.03 in983.1 mb 0.00 in0.0 mm 0.00 in0.0 mm 0.20 in5.1 mm
05:01 PM 43.5°F6.4°C 39.3°F4.1°C 85% 7.0 mph E11.3 kmh E 13.6 mph21.9 kmh 29.03 in983.1 mb 0.00 in0.0 mm 0.00 in0.0 mm 0.20 in5.1 mm
05:02 PM 43.5°F6.4°C 39.3°F4.1°C 85% 7.0 mph E11.3 kmh E 13.6 mph21.9 kmh 29.03 in983.1 mb 0.00 in0.0 mm 0.00 in0.0 mm 0.20 in5.1 mm
05:03 PM 43.5°F6.4°C 39.3°F4.1°C 85% 6.8 mph E10.9 kmh E 11.8 mph19.0 kmh 29.03 in983.1 mb 0.00 in0.0 mm 0.00 in0.0 mm 0.20 in5.1 mm
05:04 PM 43.5°F6.4°C 39.3°F4.1°C 85% 6.7 mph E10.8 kmh E 11.8 mph19.0 kmh 29.03 in983.1 mb 0.00 in0.0 mm 0.00 in0.0 mm 0.20 in5.1 mm
05:05 PM 43.5°F6.4°C 39.3°F4.1°C 85% 6.7 mph E10.8 kmh E 11.8 mph19.0 kmh 29.03 in983.1 mb 0.00 in0.0 mm 0.00 in0.0 mm 0.20 in5.1 mm
05:06 PM 43.5°F6.4°C 39.3°F4.1°C 85% 7.1 mph E11.4 kmh E 11.8 mph19.0 kmh 29.03 in983.1 mb 0.00 in0.0 mm 0.00 in0.0 mm 0.20 in5.1 mm
05:07 PM 43.3°F6.3°C 39.1°F3.9°C 85% 7.1 mph E11.4 kmh E 11.8 mph19.0 kmh 29.03 in983.1 mb 0.00 in0.0 mm 0.00 in0.0 mm 0.20 in5.1 mm
05:08 PM 43.3°F6.3°C 39.1°F3.9°C 85% 7.0 mph E11.3 kmh E 11.8 mph19.0 kmh 29.03 in983.1 mb 0.00 in0.0 mm 0.00 in0.0 mm 0.20 in5.1 mm
05:09 PM 43.3°F6.3°C 39.1°F3.9°C 85% 6.5 mph E10.5 kmh E 11.8 mph19.0 kmh 29.03 in983.1 mb 0.00 in0.0 mm 0.00 in0.0 mm 0.20 in5.1 mm
05:10 PM 43.3°F6.3°C 39.1°F3.9°C 85% 6.5 mph E10.5 kmh E 11.8 mph19.0 kmh 29.03 in983.1 mb 0.00 in0.0 mm 0.00 in0.0 mm 0.20 in5.1 mm
05:11 PM 43.3°F6.3°C 39.1°F3.9°C 85% 6.3 mph E10.1 kmh E 11.8 mph19.0 kmh 29.03 in983.1 mb 0.00 in0.0 mm 0.00 in0.0 mm 0.20 in5.1 mm
05:12 PM 43.3°F6.3°C 39.1°F3.9°C 85% 6.3 mph E10.1 kmh E 11.8 mph19.0 kmh 29.03 in983.1 mb 0.00 in0.0 mm 0.00 in0.0 mm 0.20 in5.1 mm
05:13 PM 43.3°F6.3°C 39.1°F3.9°C 85% 6.0 mph E9.7 kmh E 9.7 mph15.6 kmh 29.03 in983.1 mb 0.00 in0.0 mm 0.00 in0.0 mm 0.20 in5.1 mm
05:14 PM 43.3°F6.3°C 39.1°F3.9°C 85% 6.4 mph E10.3 kmh E 12.5 mph20.1 kmh 29.03 in983.1 mb 0.00 in0.0 mm 0.00 in0.0 mm 0.20 in5.1 mm
05:15 PM 43.3°F6.3°C 39.1°F3.9°C 85% 6.4 mph E10.3 kmh E 12.5 mph20.1 kmh 29.03 in983.1 mb 0.00 in0.0 mm 0.00 in0.0 mm 0.20 in5.1 mm
05:16 PM 43.3°F6.3°C 39.1°F3.9°C 85% 6.4 mph E10.3 kmh E 12.5 mph20.1 kmh 29.03 in983.1 mb 0.00 in0.0 mm 0.00 in0.0 mm 0.20 in5.1 mm
05:17 PM 43.3°F6.3°C 39.1°F3.9°C 85% 6.7 mph ESE10.8 kmh ESE 12.5 mph20.1 kmh 29.03 in983.1 mb 0.00 in0.0 mm 0.00 in0.0 mm 0.20 in5.1 mm
05:18 PM 43.3°F6.3°C 39.1°F3.9°C 85% 6.6 mph E10.6 kmh E 12.5 mph20.1 kmh 29.03 in983.1 mb 0.00 in0.0 mm 0.00 in0.0 mm 0.20 in5.1 mm
05:19 PM 43.3°F6.3°C 39.1°F3.9°C 85% 6.8 mph ESE10.9 kmh ESE 12.5 mph20.1 kmh 29.03 in983.1 mb 0.00 in0.0 mm 0.00 in0.0 mm 0.20 in5.1 mm
05:20 PM 43.3°F6.3°C 39.1°F3.9°C 85% 6.2 mph ESE10.0 kmh ESE 12.5 mph20.1 kmh 29.03 in983.1 mb 0.00 in0.0 mm 0.00 in0.0 mm 0.20 in5.1 mm
05:21 PM 43.3°F6.3°C 39.1°F3.9°C 85% 6.2 mph ESE10.0 kmh ESE 12.5 mph20.1 kmh 29.03 in983.1 mb 0.00 in0.0 mm 0.00 in0.0 mm 0.20 in5.1 mm
05:30 PM 43.3°F6.3°C 39.1°F3.9°C 85% 5.5 mph E8.9 kmh E 9.3 mph15.0 kmh 29.03 in983.1 mb 0.05 in1.3 mm 0.33 in8.4 mm 0.24 in6.1 mm
05:45 PM 43.3°F6.3°C 39.1°F3.9°C 85% 1.9 mph E3.1 kmh E 8.9 mph14.3 kmh 29.03 in983.1 mb 0.05 in1.3 mm 0.00 in0.0 mm 0.24 in6.1 mm
06:00 PM 43.5°F6.4°C 39.6°F4.2°C 86% 5.9 mph E9.5 kmh E 11.8 mph19.0 kmh 29.03 in983.1 mb 0.05 in1.3 mm 0.00 in0.0 mm 0.24 in6.1 mm
06:15 PM 43.3°F6.3°C 39.1°F3.9°C 85% 5.4 mph E8.7 kmh E 11.8 mph19.0 kmh 29.03 in983.1 mb 0.05 in1.3 mm 0.00 in0.0 mm 0.24 in6.1 mm
06:30 PM 43.3°F6.3°C 39.1°F3.9°C 85% 6.8 mph ESE10.9 kmh ESE 14.7 mph23.7 kmh 29.03 in983.1 mb 0.00 in0.0 mm 0.00 in0.0 mm 0.24 in6.1 mm
06:45 PM 43.3°F6.3°C 39.4°F4.1°C 86% 2.0 mph SE3.2 kmh SE 10.4 mph16.7 kmh 29.03 in983.1 mb 0.00 in0.0 mm 0.00 in0.0 mm 0.24 in6.1 mm
07:00 PM 43.3°F6.3°C 39.4°F4.1°C 86% 0.9 mph E1.4 kmh E 7.5 mph12.1 kmh 29.03 in983.1 mb 0.00 in0.0 mm 0.00 in0.0 mm 0.24 in6.1 mm
07:15 PM 43.3°F6.3°C 39.4°F4.1°C 86% 0.9 mph NE1.4 kmh NE 5.0 mph8.0 kmh 29.03 in983.1 mb 0.00 in0.0 mm 0.00 in0.0 mm 0.24 in6.1 mm
07:30 PM 43.3°F6.3°C 39.4°F4.1°C 86% 2.4 mph E3.9 kmh E 9.7 mph15.6 kmh 29.03 in983.1 mb 0.00 in0.0 mm 0.00 in0.0 mm 0.24 in6.1 mm
07:45 PM 43.2°F6.2°C 39.3°F4.1°C 86% 5.6 mph E9.0 kmh E 12.5 mph20.1 kmh 29.03 in983.1 mb 0.00 in0.0 mm 0.00 in0.0 mm 0.24 in6.1 mm
08:00 PM 43.0°F6.1°C 39.1°F3.9°C 86% 4.1 mph ENE6.6 kmh ENE 10.0 mph16.1 kmh 29.03 in983.1 mb 0.00 in0.0 mm 0.00 in0.0 mm 0.24 in6.1 mm
08:15 PM 42.1°F5.6°C 37.9°F3.3°C 85% 5.4 mph ENE8.7 kmh ENE 10.4 mph16.7 kmh 29.03 in983.1 mb 0.14 in3.6 mm 0.56 in14.2 mm 0.38 in9.7 mm
08:30 PM 41.4°F5.2°C 37.2°F2.9°C 85% 6.1 mph ENE9.8 kmh ENE 11.1 mph17.9 kmh 29.03 in983.1 mb 0.14 in3.6 mm 0.00 in0.0 mm 0.38 in9.7 mm
08:45 PM 40.8°F4.9°C 36.7°F2.6°C 85% 6.6 mph ENE10.6 kmh ENE 15.4 mph24.8 kmh 29.03 in983.1 mb 0.14 in3.6 mm 0.00 in0.0 mm 0.38 in9.7 mm
09:00 PM 40.5°F4.7°C 36.3°F2.4°C 85% 7.4 mph E11.9 kmh E 14.0 mph22.5 kmh 29.03 in983.1 mb 0.19 in4.8 mm 0.07 in1.8 mm 0.43 in10.9 mm
09:15 PM 40.3°F4.6°C 36.1°F2.3°C 85% 5.4 mph E8.7 kmh E 12.2 mph19.6 kmh 29.03 in983.1 mb 0.05 in1.3 mm 0.00 in0.0 mm 0.43 in10.9 mm
09:30 PM 40.3°F4.6°C 36.1°F2.3°C 85% 6.1 mph E9.8 kmh E 13.6 mph21.9 kmh 29.03 in983.1 mb 0.10 in2.5 mm 0.20 in5.1 mm 0.48 in12.2 mm
09:45 PM 40.1°F4.5°C 36.0°F2.2°C 85% 6.3 mph E10.1 kmh E 14.0 mph22.5 kmh 29.03 in983.1 mb 0.10 in2.5 mm 0.00 in0.0 mm 0.48 in12.2 mm
10:00 PM 39.9°F4.4°C 35.8°F2.1°C 85% 4.5 mph ENE7.2 kmh ENE 10.0 mph16.1 kmh 29.03 in983.1 mb 0.06 in1.5 mm 0.00 in0.0 mm 0.48 in12.2 mm
10:15 PM 39.7°F4.3°C 35.6°F2.0°C 85% 5.6 mph E9.0 kmh E 10.7 mph17.2 kmh 29.03 in983.1 mb 0.06 in1.5 mm 0.00 in0.0 mm 0.48 in12.2 mm
10:30 PM 39.7°F4.3°C 35.6°F2.0°C 85% 6.3 mph E10.1 kmh E 13.6 mph21.9 kmh 29.00 in982.1 mb 0.00 in0.0 mm 0.00 in0.0 mm 0.48 in12.2 mm
10:45 PM 39.4°F4.1°C 35.2°F1.8°C 85% 7.6 mph E12.2 kmh E 17.5 mph28.2 kmh 29.00 in982.1 mb 0.00 in0.0 mm 0.00 in0.0 mm 0.48 in12.2 mm
11:00 PM 39.2°F4.0°C 35.1°F1.7°C 85% 6.5 mph E10.5 kmh E 14.0 mph22.5 kmh 29.00 in982.1 mb 0.00 in0.0 mm 0.00 in0.0 mm 0.50 in12.7 mm
11:15 PM 39.2°F4.0°C 35.1°F1.7°C 85% 8.9 mph E14.3 kmh E 16.5 mph26.6 kmh 29.00 in982.1 mb 0.00 in0.0 mm 0.00 in0.0 mm 0.50 in12.7 mm
11:30 PM 39.0°F3.9°C 34.9°F1.6°C 85% 5.8 mph E9.3 kmh E 12.5 mph20.1 kmh 28.97 in981.0 mb 0.00 in0.0 mm 0.00 in0.0 mm 0.50 in12.7 mm
11:45 PM 38.8°F3.8°C 34.7°F1.5°C 85% 7.0 mph ENE11.3 kmh ENE 15.7 mph25.3 kmh 28.97 in981.0 mb 0.00 in0.0 mm 0.00 in0.0 mm 0.50 in12.7 mm